createdAt,value
2023-04-15T00:00:11.961Z,19417.56
2023-04-15T00:02:41.569Z,19380.97
2023-04-15T00:05:10.466Z,19354.56
2023-04-15T00:07:38.629Z,19350.50
2023-04-15T00:10:08.626Z,19366.75
2023-04-15T00:12:37.008Z,19368.78
2023-04-15T00:15:06.653Z,19354.56
2023-04-15T00:17:34.808Z,19376.91
2023-04-15T00:20:06.341Z,19393.16
2023-04-15T00:22:34.535Z,19352.53
2023-04-15T00:25:03.373Z,19380.97
2023-04-15T00:27:31.640Z,19380.97
2023-04-15T00:30:00.043Z,19368.78
2023-04-15T00:32:28.190Z,19380.97
2023-04-15T00:34:56.369Z,19372.84
2023-04-15T00:37:25.930Z,19348.47
2023-04-15T00:39:54.058Z,19350.50
2023-04-15T00:42:22.676Z,19342.34
2023-04-15T00:44:50.772Z,19358.63
2023-04-15T00:47:20.677Z,19354.56
2023-04-15T00:49:48.790Z,19368.78
2023-04-15T00:52:17.416Z,19362.69
2023-04-15T00:54:47.092Z,19378.94
2023-04-15T00:57:15.224Z,19393.16
2023-04-15T00:59:43.624Z,19366.75
2023-04-15T01:02:11.913Z,19344.41
2023-04-15T01:04:40.122Z,19387.06
2023-04-15T01:07:08.190Z,19340.31
2023-04-15T01:09:36.534Z,19334.22
2023-04-15T01:12:07.054Z,19344.41
2023-04-15T01:14:35.805Z,19346.44
2023-04-15T01:17:03.994Z,19358.63
2023-04-15T01:19:32.638Z,19342.34
2023-04-15T01:22:00.781Z,19328.13
2023-04-15T01:24:33.105Z,19368.78
2023-04-15T01:27:03.386Z,19334.22
2023-04-15T01:29:32.852Z,19358.63
2023-04-15T01:32:00.981Z,19352.53
2023-04-15T01:34:29.091Z,19334.22
2023-04-15T01:36:57.202Z,19370.81
2023-04-15T01:39:25.282Z,19338.28
2023-04-15T01:41:53.833Z,19328.13
2023-04-15T01:44:23.319Z,19362.69
2023-04-15T01:46:51.519Z,19344.41
2023-04-15T01:49:19.951Z,19336.25
2023-04-15T01:51:49.328Z,19315.94
2023-04-15T01:54:17.425Z,19342.34
2023-04-15T01:56:45.529Z,19380.97
2023-04-15T01:59:13.803Z,19354.56
2023-04-15T02:01:43.266Z,19328.13
2023-04-15T02:04:16.502Z,19320.00
2023-04-15T02:06:44.755Z,19309.84
2023-04-15T02:09:13.381Z,19317.97
2023-04-15T02:11:41.479Z,19328.13
2023-04-15T02:14:09.589Z,19311.88
2023-04-15T02:16:37.753Z,19338.28
2023-04-15T02:19:07.916Z,19303.75
2023-04-15T02:21:36.393Z,19299.69
2023-04-15T02:24:04.759Z,19309.84
2023-04-15T02:26:33.378Z,19324.06
2023-04-15T02:29:02.018Z,19338.28
2023-04-15T02:31:30.356Z,19328.13
2023-04-15T02:33:58.711Z,19305.78
2023-04-15T02:36:29.763Z,19336.25
2023-04-15T02:38:57.816Z,19338.28
2023-04-15T02:41:27.817Z,19293.59
2023-04-15T02:43:56.706Z,19289.53
2023-04-15T02:46:25.117Z,19279.38
2023-04-15T02:48:53.789Z,19317.97
2023-04-15T02:51:23.563Z,19332.19
2023-04-15T02:53:53.040Z,19332.19
2023-04-15T02:56:23.158Z,19309.84
2023-04-15T02:58:51.516Z,19291.56
2023-04-15T03:01:20.545Z,19281.41
2023-04-15T03:03:48.822Z,19326.09
2023-04-15T03:06:17.042Z,19311.88
2023-04-15T03:08:45.635Z,19301.72
2023-04-15T03:11:16.220Z,19326.09
2023-04-15T03:13:44.401Z,19299.69
2023-04-15T03:16:12.673Z,19303.75
2023-04-15T03:18:40.835Z,19334.22
2023-04-15T03:21:08.949Z,19299.69
2023-04-15T03:23:37.106Z,19293.59
2023-04-15T03:26:06.271Z,19309.84
2023-04-15T03:28:35.802Z,19295.63
2023-04-15T03:31:03.921Z,19293.59
2023-04-15T03:33:32.040Z,19324.06
2023-04-15T03:36:00.486Z,19309.84
2023-04-15T03:38:28.721Z,19334.22
2023-04-15T03:40:56.857Z,19297.66
2023-04-15T03:43:25.015Z,19289.53
2023-04-15T03:45:54.576Z,19287.50
2023-04-15T03:48:22.781Z,19328.13
2023-04-15T03:50:51.007Z,19289.53
2023-04-15T03:53:19.165Z,19293.59
2023-04-15T03:55:47.722Z,19334.22
2023-04-15T03:58:15.939Z,19338.28
2023-04-15T04:00:44.051Z,19307.81
2023-04-15T04:03:13.786Z,19328.13
2023-04-15T04:05:42.579Z,19299.69
2023-04-15T04:08:13.689Z,19330.16
2023-04-15T04:10:41.796Z,19307.81
2023-04-15T04:13:10.024Z,19293.59
2023-04-15T04:15:38.150Z,19313.91
2023-04-15T04:18:06.556Z,19299.69
2023-04-15T04:20:36.164Z,19330.16
2023-04-15T04:23:04.295Z,19326.09
2023-04-15T04:25:33.092Z,19317.97
2023-04-15T04:28:01.234Z,19303.75
2023-04-15T04:30:29.355Z,19281.41
2023-04-15T04:32:57.545Z,19303.75
2023-04-15T04:35:25.640Z,19332.19
2023-04-15T04:37:55.055Z,19301.72
2023-04-15T04:40:23.164Z,19297.66
2023-04-15T04:42:51.261Z,19311.88
2023-04-15T04:45:19.462Z,19309.84
2023-04-15T04:47:47.861Z,19303.75
2023-04-15T04:50:16.573Z,19326.09
2023-04-15T04:52:44.686Z,19346.44
2023-04-15T04:55:14.322Z,19320.00
2023-04-15T04:57:42.467Z,19307.81
2023-04-15T05:00:12.579Z,19342.34
2023-04-15T05:02:41.835Z,19287.50
2023-04-15T05:05:11.704Z,19291.56
2023-04-15T05:07:40.633Z,19328.13
2023-04-15T05:10:10.426Z,19315.94
2023-04-15T05:12:39.965Z,19317.97
2023-04-15T05:15:10.081Z,19334.22
2023-04-15T05:17:38.186Z,19293.59
2023-04-15T05:20:07.771Z,19301.72
2023-04-15T05:22:36.195Z,19320.00
2023-04-15T05:25:05.107Z,19320.00
2023-04-15T05:27:33.260Z,19305.78
2023-04-15T05:30:02.870Z,19311.88
2023-04-15T05:32:31.132Z,19309.84
2023-04-15T05:34:59.286Z,19320.00
2023-04-15T05:37:27.458Z,19289.53
2023-04-15T05:39:55.597Z,19326.09
2023-04-15T05:42:23.872Z,19273.28
2023-04-15T05:44:52.052Z,19299.69
2023-04-15T05:47:21.755Z,19301.72
2023-04-15T05:49:49.889Z,19344.41
2023-04-15T05:52:18.083Z,19313.91
2023-04-15T05:54:46.518Z,19303.75
2023-04-15T05:57:14.649Z,19295.63
2023-04-15T05:59:43.086Z,19309.84
2023-04-15T06:02:12.049Z,19328.13
2023-04-15T06:04:41.590Z,19303.75
2023-04-15T06:07:09.733Z,19301.72
2023-04-15T06:09:40.155Z,19354.56
2023-04-15T06:12:12.089Z,19338.28
2023-04-15T06:14:40.552Z,19326.09
2023-04-15T06:17:08.837Z,19293.59
2023-04-15T06:19:37.289Z,19340.31
2023-04-15T06:22:07.969Z,19330.16
2023-04-15T06:24:38.018Z,19360.66
2023-04-15T06:27:06.146Z,19370.81
2023-04-15T06:29:34.286Z,19362.69
2023-04-15T06:32:02.415Z,19350.50
2023-04-15T06:34:30.719Z,19309.84
2023-04-15T06:36:58.809Z,19334.22
2023-04-15T06:39:28.390Z,19313.91
2023-04-15T06:41:56.487Z,19338.28
2023-04-15T06:44:24.917Z,19346.44
2023-04-15T06:46:53.048Z,19309.84
2023-04-15T06:49:21.166Z,19346.44
2023-04-15T06:51:49.380Z,19346.44
2023-04-15T06:54:17.482Z,19368.78
2023-04-15T06:56:47.398Z,19364.72
2023-04-15T06:59:15.599Z,19340.31
2023-04-15T07:01:43.750Z,19376.91
2023-04-15T07:04:12.599Z,19356.59
2023-04-15T07:06:41.842Z,19346.44
2023-04-15T07:09:09.972Z,19354.56
2023-04-15T07:11:38.145Z,19334.22
2023-04-15T07:14:07.654Z,19358.63
2023-04-15T07:16:35.789Z,19362.69
2023-04-15T07:19:04.276Z,19322.03
2023-04-15T07:21:32.689Z,19364.72
2023-04-15T07:24:00.822Z,19342.34
2023-04-15T07:26:29.115Z,19342.34
2023-04-15T07:28:57.192Z,19332.19
2023-04-15T07:31:27.351Z,19362.69
2023-04-15T07:33:55.534Z,19364.72
2023-04-15T07:36:23.650Z,19354.56
2023-04-15T07:38:52.892Z,19338.28
2023-04-15T07:41:21.058Z,19313.91
2023-04-15T07:43:49.772Z,19326.09
2023-04-15T07:46:18.200Z,19334.22
2023-04-15T07:48:47.732Z,19366.75
2023-04-15T07:51:15.905Z,19360.66
2023-04-15T07:53:44.504Z,19350.50
2023-04-15T07:56:12.767Z,19393.16
2023-04-15T07:58:41.319Z,19372.84
2023-04-15T08:01:09.726Z,19370.81
2023-04-15T08:03:38.293Z,19338.28
2023-04-15T08:06:07.902Z,19356.59
2023-04-15T08:08:36.000Z,19346.44
2023-04-15T08:11:04.139Z,19360.66
2023-04-15T08:13:32.225Z,19364.72
2023-04-15T08:16:20.817Z,19372.84
2023-04-15T08:18:50.514Z,19391.13
2023-04-15T08:21:21.569Z,19366.75
2023-04-15T08:23:51.812Z,19358.63
2023-04-15T08:26:21.567Z,19366.75
2023-04-15T08:28:51.191Z,19395.19
2023-04-15T08:31:20.901Z,19403.31
2023-04-15T08:33:49.216Z,19383.00
2023-04-15T08:36:17.620Z,19356.59
2023-04-15T08:38:47.438Z,19326.09
2023-04-15T08:41:24.358Z,19383.00
2023-04-15T08:43:59.808Z,19380.97
2023-04-15T08:46:29.060Z,19395.19
2023-04-15T08:48:59.861Z,19378.94
2023-04-15T08:51:29.898Z,19366.75
2023-04-15T08:54:00.745Z,19407.38
2023-04-15T08:56:32.788Z,19374.88
2023-04-15T08:59:01.952Z,19389.09
2023-04-15T09:01:30.594Z,19423.66
2023-04-15T09:04:00.685Z,19423.66
2023-04-15T09:06:28.850Z,19419.59
2023-04-15T09:08:57.526Z,19409.41
2023-04-15T09:11:27.079Z,19389.09
2023-04-15T09:13:55.704Z,19421.63
2023-04-15T09:16:23.960Z,19419.59
2023-04-15T09:18:52.328Z,19378.94
2023-04-15T09:21:20.888Z,19407.38
2023-04-15T09:24:01.841Z,19425.69
2023-04-15T09:26:37.344Z,19387.06
2023-04-15T09:29:07.907Z,19443.97
2023-04-15T09:31:36.768Z,19423.66
2023-04-15T09:34:05.139Z,19415.50
2023-04-15T09:36:54.235Z,19425.69
2023-04-15T09:39:22.688Z,19427.72
2023-04-15T09:44:44.953Z,19450.06
2023-04-15T09:47:29.962Z,19411.44
2023-04-15T09:49:59.534Z,19413.47
2023-04-15T09:52:28.634Z,19429.75
2023-04-15T09:54:59.335Z,19443.97
2023-04-15T09:57:35.384Z,19452.09
2023-04-15T10:00:05.354Z,19443.97
2023-04-15T10:02:34.246Z,19423.66
2023-04-15T10:05:03.756Z,19441.94
2023-04-15T10:07:32.124Z,19431.78
2023-04-15T10:10:02.441Z,19460.22
2023-04-15T10:12:33.463Z,19433.81
2023-04-15T10:15:07.768Z,19441.94
2023-04-15T10:17:37.315Z,19458.19
2023-04-15T10:20:09.364Z,19448.03
2023-04-15T10:22:39.154Z,19476.47
2023-04-15T10:25:09.365Z,19466.31
2023-04-15T10:27:38.370Z,19439.91
2023-04-15T10:30:09.838Z,19456.16
2023-04-15T10:32:39.479Z,19433.81
2023-04-15T10:35:09.490Z,19488.69
2023-04-15T10:37:39.874Z,19468.34
2023-04-15T10:40:31.268Z,19462.25
2023-04-15T10:43:02.064Z,19439.91
2023-04-15T10:45:36.669Z,19391.13
2023-04-15T10:48:08.582Z,19490.72
2023-04-15T10:50:39.376Z,19466.31
2023-04-15T10:53:11.135Z,19484.59
2023-04-15T10:55:39.567Z,19468.34
2023-04-15T10:58:07.719Z,19506.97
2023-04-15T11:00:39.868Z,19443.97
2023-04-15T11:03:10.244Z,19470.38
2023-04-15T11:05:56.948Z,19482.56
2023-04-15T11:08:58.753Z,19484.59
2023-04-15T11:12:07.563Z,19484.59
2023-04-15T11:14:40.619Z,19519.16
2023-04-15T11:17:10.252Z,19476.47
2023-04-15T11:19:39.774Z,19509.00
2023-04-15T11:22:11.269Z,19515.09
2023-04-15T11:24:50.452Z,19515.09
2023-04-15T11:27:24.987Z,19496.81
2023-04-15T11:29:53.350Z,19531.34
2023-04-15T11:32:23.259Z,19509.00
2023-04-15T11:34:53.509Z,19511.03
2023-04-15T11:37:30.652Z,19460.22
2023-04-15T11:39:58.829Z,19504.94
2023-04-15T11:42:33.701Z,19480.53
2023-04-15T11:45:13.616Z,19502.91
2023-04-15T11:47:44.102Z,19486.66
2023-04-15T11:50:17.540Z,19496.81
2023-04-15T11:52:55.109Z,19482.56
2023-04-15T11:55:24.877Z,19511.03
2023-04-15T11:58:08.118Z,19517.13
2023-04-15T12:00:36.942Z,19504.94
2023-04-15T12:03:20.107Z,19484.59
2023-04-15T12:06:23.453Z,19462.25
2023-04-15T12:09:00.120Z,19535.41
2023-04-15T12:11:43.637Z,19515.09
2023-04-15T12:14:17.071Z,19533.38
2023-04-15T12:16:49.945Z,19523.22
2023-04-15T12:19:28.584Z,19504.94
2023-04-15T12:22:01.790Z,19519.16
2023-04-15T12:24:33.571Z,19484.59
2023-04-15T12:27:04.840Z,19494.78
2023-04-15T12:29:35.193Z,19511.03
2023-04-15T12:32:08.166Z,19529.31
2023-04-15T12:34:40.544Z,19529.31
2023-04-15T12:37:11.450Z,19567.94
2023-04-15T12:39:42.894Z,19561.84
2023-04-15T12:42:12.437Z,19574.03
2023-04-15T12:44:41.541Z,19565.91
2023-04-15T12:47:11.470Z,19582.16
2023-04-15T12:49:41.415Z,19614.66
2023-04-15T12:52:09.964Z,19635.00
2023-04-15T12:54:38.148Z,19598.41
2023-04-15T12:57:07.487Z,19618.75
2023-04-15T12:59:36.427Z,19620.78
2023-04-15T13:02:05.455Z,19592.31
2023-04-15T13:04:33.851Z,19596.38
2023-04-15T13:07:03.774Z,19598.41
2023-04-15T13:09:32.423Z,19614.66
2023-04-15T13:12:00.693Z,19580.13
2023-04-15T13:14:28.833Z,19557.78
2023-04-15T13:16:56.964Z,19578.09
2023-04-15T13:19:25.102Z,19592.31
2023-04-15T13:21:53.343Z,19598.41
2023-04-15T13:24:22.810Z,19606.53
2023-04-15T13:26:50.896Z,19578.09
2023-04-15T13:29:19.093Z,19551.69
2023-04-15T13:31:47.289Z,19537.44
2023-04-15T13:34:15.545Z,19547.59
2023-04-15T13:36:43.673Z,19582.16
2023-04-15T13:39:11.816Z,19539.47
2023-04-15T13:41:41.920Z,19572.00
2023-04-15T13:44:10.061Z,19590.28
2023-04-15T13:46:39.550Z,19590.28
2023-04-15T13:49:07.687Z,19572.00
2023-04-15T13:51:36.812Z,19569.97
2023-04-15T13:54:05.430Z,19602.47
2023-04-15T13:56:33.859Z,19565.91
2023-04-15T13:59:04.113Z,19576.06
2023-04-15T14:01:32.366Z,19608.56
2023-04-15T14:04:00.589Z,19569.97
2023-04-15T14:06:29.611Z,19567.94
2023-04-15T14:08:59.275Z,19547.59
2023-04-15T14:11:27.425Z,19559.81
2023-04-15T14:13:55.547Z,19567.94
2023-04-15T14:16:25.098Z,19590.28
2023-04-15T14:18:53.207Z,19594.34
2023-04-15T14:21:21.413Z,19572.00
2023-04-15T14:23:49.571Z,19531.34
2023-04-15T14:26:17.707Z,19509.00
2023-04-15T14:28:45.920Z,19582.16
2023-04-15T14:31:14.233Z,19535.41
2023-04-15T14:33:43.885Z,19541.50
2023-04-15T14:36:12.199Z,19588.25
2023-04-15T14:38:40.998Z,19549.63
2023-04-15T14:41:10.106Z,19525.25
2023-04-15T14:43:38.786Z,19553.72
2023-04-15T14:46:08.446Z,19539.47
2023-04-15T14:48:36.929Z,19529.31
2023-04-15T14:51:07.007Z,19557.78
2023-04-15T14:53:35.195Z,19521.19
2023-04-15T14:56:03.483Z,19511.03
2023-04-15T14:58:32.749Z,19502.91
2023-04-15T15:01:01.932Z,19504.94
2023-04-15T15:03:30.415Z,19517.13
2023-04-15T15:05:58.748Z,19509.00
2023-04-15T15:08:28.228Z,19515.09
2023-04-15T15:10:56.328Z,19502.91
2023-04-15T15:13:25.331Z,19547.59
2023-04-15T15:15:53.816Z,19537.44
2023-04-15T15:18:22.031Z,19533.38
2023-04-15T15:20:50.262Z,19547.59
2023-04-15T15:23:18.785Z,19525.25
2023-04-15T15:25:48.944Z,19541.50
2023-04-15T15:28:17.076Z,19537.44
2023-04-15T15:30:45.521Z,19529.31
2023-04-15T15:33:13.697Z,19557.78
2023-04-15T15:35:41.987Z,19561.84
2023-04-15T15:38:12.824Z,19578.09
2023-04-15T15:40:41.049Z,19547.59
2023-04-15T15:43:10.611Z,19576.06
2023-04-15T15:45:38.801Z,19555.75
2023-04-15T15:48:07.979Z,19567.94
2023-04-15T15:50:36.277Z,19574.03
2023-04-15T15:53:04.450Z,19590.28
2023-04-15T15:55:32.557Z,19572.00
2023-04-15T15:58:00.730Z,19561.84
2023-04-15T16:00:30.244Z,19594.34
2023-04-15T16:05:29.525Z,19610.59
2023-04-15T16:07:57.726Z,19604.50
2023-04-15T16:10:26.063Z,19576.06
2023-04-15T16:12:54.267Z,19569.97
2023-04-15T16:15:23.512Z,19586.22
2023-04-15T16:17:53.151Z,19561.84
2023-04-15T16:20:21.385Z,19572.00
2023-04-15T16:22:49.633Z,19572.00
2023-04-15T16:25:17.796Z,19598.41
2023-04-15T16:27:58.940Z,19569.97
2023-04-15T16:30:30.061Z,19588.25
2023-04-15T16:32:59.645Z,19539.47
2023-04-15T16:35:28.321Z,19576.06
2023-04-15T16:37:56.496Z,19563.88
2023-04-15T16:40:24.897Z,19537.44
2023-04-15T16:42:53.377Z,19555.75
2023-04-15T16:45:21.532Z,19531.34
2023-04-15T16:47:49.773Z,19549.63
2023-04-15T16:50:19.387Z,19529.31
2023-04-15T16:52:47.547Z,19529.31
2023-04-15T16:55:15.721Z,19537.44
2023-04-15T16:58:00.617Z,19541.50
2023-04-15T17:00:31.653Z,19545.56
2023-04-15T17:03:00.332Z,19492.75
2023-04-15T17:05:30.557Z,19523.22
2023-04-15T17:07:58.945Z,19537.44
2023-04-15T17:10:27.302Z,19535.41
2023-04-15T17:12:57.699Z,19523.22
2023-04-15T17:15:26.331Z,19517.13
2023-04-15T17:17:54.963Z,19517.13
2023-04-15T17:20:23.718Z,19545.56
2023-04-15T17:22:53.269Z,19484.59
2023-04-15T17:25:21.722Z,19504.94
2023-04-15T17:27:49.902Z,19531.34
2023-04-15T17:30:18.023Z,19494.78
2023-04-15T17:32:46.281Z,19515.09
2023-04-15T17:35:14.614Z,19478.50
2023-04-15T17:37:42.720Z,19529.31
2023-04-15T17:40:14.762Z,19504.94
2023-04-15T17:42:43.013Z,19555.75
2023-04-15T17:45:12.413Z,19535.41
2023-04-15T17:47:40.823Z,19523.22
2023-04-15T17:50:10.316Z,19525.25
2023-04-15T17:52:38.451Z,19525.25
2023-04-15T17:55:07.960Z,19478.50
2023-04-15T17:57:37.657Z,19504.94
2023-04-15T18:00:08.735Z,19515.09
2023-04-15T18:02:37.360Z,19527.28
2023-04-15T18:05:07.014Z,19504.94
2023-04-15T18:07:35.485Z,19466.31
2023-04-15T18:10:03.724Z,19474.44
2023-04-15T18:12:31.872Z,19456.16
2023-04-15T18:15:01.485Z,19446.00
2023-04-15T18:17:29.714Z,19454.13
2023-04-15T18:19:57.929Z,19433.81
2023-04-15T18:22:26.110Z,19470.38
2023-04-15T18:24:54.597Z,19399.25
2023-04-15T18:27:22.818Z,19427.72
2023-04-15T18:29:52.378Z,19425.69
2023-04-15T18:32:21.827Z,19431.78
2023-04-15T18:34:50.120Z,19376.91
2023-04-15T18:37:18.487Z,19383.00
2023-04-15T18:39:46.619Z,19387.06
2023-04-15T18:42:14.774Z,19374.88
2023-04-15T18:44:42.866Z,19358.63
2023-04-15T18:47:11.021Z,19366.75
2023-04-15T18:49:41.442Z,19387.06
2023-04-15T18:52:12.139Z,19356.59
2023-04-15T18:54:40.465Z,19346.44
2023-04-15T18:57:08.630Z,19334.22
2023-04-15T18:59:36.798Z,19283.44
2023-04-15T19:02:07.339Z,19291.56
2023-04-15T19:04:35.719Z,19313.91
2023-04-15T19:07:05.393Z,19336.25
2023-04-15T19:09:34.307Z,19344.41
2023-04-15T19:12:02.612Z,19317.97
2023-04-15T19:14:32.263Z,19291.56
2023-04-15T19:17:00.625Z,19311.88
2023-04-15T19:19:29.365Z,19317.97
2023-04-15T19:21:57.723Z,19324.06
2023-04-15T19:24:27.280Z,19313.91
2023-04-15T19:26:57.139Z,19297.66
2023-04-15T19:29:26.135Z,19299.69
2023-04-15T19:31:54.207Z,19267.16
2023-04-15T19:34:22.417Z,19285.47
2023-04-15T19:36:50.669Z,19281.41
2023-04-15T19:39:19.635Z,19240.75
2023-04-15T19:41:49.747Z,19277.34
2023-04-15T19:44:18.133Z,19238.72
2023-04-15T19:46:49.794Z,19244.81
2023-04-15T19:49:19.032Z,19232.63
2023-04-15T19:51:49.100Z,19248.88
2023-04-15T19:54:17.574Z,19218.41
2023-04-15T19:56:45.742Z,19198.09
2023-04-15T19:59:15.219Z,19230.59
2023-04-15T20:01:43.402Z,19283.44
2023-04-15T20:04:11.717Z,19265.13
2023-04-15T20:06:46.080Z,19224.50
2023-04-15T20:09:14.236Z,19208.25
2023-04-15T20:12:45.008Z,19204.19
2023-04-15T20:14:32.100Z,19173.69
2023-04-15T20:17:00.633Z,19187.91
2023-04-15T20:19:28.759Z,19163.53
2023-04-15T20:21:56.884Z,19196.06
2023-04-15T20:24:25.161Z,19200.13
2023-04-15T20:26:53.249Z,19232.63
2023-04-15T20:29:21.416Z,19212.31
2023-04-15T20:31:51.278Z,19165.56
2023-04-15T20:34:19.456Z,19181.81
2023-04-15T20:36:47.579Z,19204.19
2023-04-15T20:39:15.874Z,19175.72
2023-04-15T20:41:44.080Z,19143.22
2023-04-15T20:44:12.301Z,19151.34
2023-04-15T20:46:40.461Z,19155.41
2023-04-15T20:49:10.017Z,19131.03
2023-04-15T20:51:38.237Z,19114.78
2023-04-15T20:54:07.266Z,19094.44
2023-04-15T20:56:35.424Z,19118.84
2023-04-15T20:59:03.876Z,19122.91
2023-04-15T21:01:32.193Z,19131.03
2023-04-15T21:04:00.488Z,19102.56
2023-04-15T21:06:30.002Z,19110.72
2023-04-15T21:08:58.245Z,19102.56
2023-04-15T21:11:49.460Z,19094.44
2023-04-15T21:14:14.726Z,19102.56
2023-04-15T21:16:43.738Z,19094.44
2023-04-15T21:19:12.068Z,19070.06
2023-04-15T21:21:41.593Z,19053.81
2023-04-15T21:24:09.820Z,19055.84
2023-04-15T21:26:38.005Z,19084.28
2023-04-15T21:29:08.680Z,19055.84
2023-04-15T21:31:38.790Z,19055.84
2023-04-15T21:34:07.056Z,19037.56
2023-04-15T21:36:35.224Z,19049.75
2023-04-15T21:39:05.305Z,19017.25
2023-04-15T21:41:33.803Z,19041.63
2023-04-15T21:44:02.190Z,19035.53
2023-04-15T21:46:33.150Z,19043.66
2023-04-15T21:49:04.388Z,19019.28
2023-04-15T21:51:32.781Z,19035.53
2023-04-15T21:54:01.028Z,19011.13
2023-04-15T21:56:30.749Z,18988.78
2023-04-15T21:58:59.467Z,19000.97
2023-04-15T22:01:28.009Z,18990.81
2023-04-15T22:03:56.352Z,18938.00
2023-04-15T22:06:24.677Z,18950.19
2023-04-15T22:09:12.001Z,19011.13
2023-04-15T22:11:41.657Z,18986.75
2023-04-15T22:14:09.862Z,18960.34
2023-04-15T22:16:38.029Z,18970.50
2023-04-15T22:19:06.340Z,18988.78
2023-04-15T22:21:34.608Z,19000.97
2023-04-15T22:24:32.587Z,18972.53
2023-04-15T22:26:52.210Z,18972.53
2023-04-15T22:29:20.398Z,18948.16
2023-04-15T22:31:48.651Z,19003.00
2023-04-15T22:34:21.138Z,18956.28
2023-04-15T22:36:49.317Z,18974.56
2023-04-15T22:39:17.812Z,18952.22
2023-04-15T22:41:46.399Z,18946.13
2023-04-15T22:44:15.829Z,18952.22
2023-04-15T22:46:44.058Z,18964.41
2023-04-15T22:49:12.218Z,18950.19
2023-04-15T22:51:40.344Z,18956.28
2023-04-15T22:54:08.513Z,18944.09
2023-04-15T22:56:36.679Z,18946.13
2023-04-15T22:59:04.814Z,18907.50
2023-04-15T23:01:34.379Z,18911.56
2023-04-15T23:04:07.009Z,18946.13
2023-04-15T23:06:37.206Z,18923.78
2023-04-15T23:09:05.486Z,18905.47
2023-04-15T23:11:33.629Z,18895.31
2023-04-15T23:14:01.704Z,18909.53
2023-04-15T23:16:29.949Z,18909.53
2023-04-15T23:18:59.447Z,18899.38
2023-04-15T23:21:29.075Z,18895.31
2023-04-15T23:23:57.233Z,18907.50
2023-04-15T23:26:27.229Z,18917.66
2023-04-15T23:28:55.410Z,18909.53
2023-04-15T23:31:23.596Z,18901.41
2023-04-15T23:33:51.763Z,18887.19
2023-04-15T23:36:21.239Z,18889.22
2023-04-15T23:38:49.929Z,18879.06
2023-04-15T23:41:18.266Z,18891.25
2023-04-15T23:43:46.579Z,18858.75
2023-04-15T23:46:14.975Z,18862.81
2023-04-15T23:48:43.169Z,18893.28
2023-04-15T23:51:11.592Z,18897.34
2023-04-15T23:53:41.080Z,18903.44
2023-04-15T23:56:09.475Z,18913.59
2023-04-15T23:58:37.567Z,18860.78
